EVRA/RIX METAR and TAF weather

Enter ICAO airport designator
Station Type Date Time Source
EVRA METAR 2022/06/26 08:20 UTC NOAA

EVRA 260820Z 17010KT CAVOK 29/16 Q1021 NOSIG


Station Type Date Time Source
EVRA Decoded METAR 2022/06/26 08:20 UTC NOAA

Riga International Airport, Latvia (EVRA) 56-55N 023-58E
Jun 26, 2022 - 04:20 AM EDT / 2022.06.26 0820 UTC
Wind: from the S (170 degrees) at 12 MPH (10 KT):0
Visibility: greater than 7 mile(s):0
Temperature: 84 F (29 C)
Dew Point: 60 F (16 C)
Relative Humidity: 45%
Pressure (altimeter): 30.15 in. Hg (1021 hPa)
ob: EVRA 260820Z 17010KT CAVOK 29/16 Q1021 NOSIG
cycle: 8

Station Type Date Time Source
EVRA TAF 2022/06/26 09:12 UTC NOAA

TAF EVRA 260803Z 2609/2709 VRB02KT CAVOK

Example: see airport list